Terminal Aerodrome Forecast
Issued by NWS

Home | Current Version | Previous Version | Text Only | Print | Product List | Glossary On
Versions: 1 2 3 4 5 6 7 8 9 10 11 12 13 14 15
322
FTUS43 KMQT 281721 AAA
TAFCMX
TAF AMD
KCMX 281721Z 2817/2912 27019G28KT P6SM BKN035
     FM282300 28012G20KT P6SM BKN045
     FM290100 28009KT P6SM BKN070
     FM290500 31007KT P6SM BKN070
     FM290800 33007KT P6SM SCT090=

USA.gov is the U.S. government's official web portal to all federal, state and local government web resources and services.